createdAt,value
2022-12-05T00:08:04.794Z,87.40
2022-12-05T00:18:08.878Z,86.59
2022-12-05T00:28:12.772Z,86.30
2022-12-05T00:38:17.358Z,86.39
2022-12-05T00:48:21.325Z,85.77
2022-12-05T00:58:24.894Z,85.87
2022-12-05T01:08:29.480Z,85.72
2022-12-05T01:18:33.551Z,85.69
2022-12-05T01:28:38.427Z,85.68
2022-12-05T01:38:44.276Z,85.66
2022-12-05T01:48:48.345Z,85.04
2022-12-05T01:58:54.238Z,84.57
2022-12-05T02:08:58.011Z,84.90
2022-12-05T02:19:16.895Z,84.91
2022-12-05T02:29:58.818Z,85.53
2022-12-05T02:40:15.836Z,85.69
2022-12-05T02:50:26.564Z,85.68
2022-12-05T03:00:30.527Z,86.13
2022-12-05T03:10:36.793Z,86.81
2022-12-05T03:20:49.931Z,86.44
2022-12-05T03:30:55.933Z,86.57
2022-12-05T03:41:15.270Z,86.61
2022-12-05T03:51:23.818Z,86.84
2022-12-05T04:01:31.023Z,87.78
2022-12-05T04:11:40.720Z,88.29
2022-12-05T04:21:48.463Z,87.79
2022-12-05T04:31:58.334Z,87.15
2022-12-05T04:42:06.837Z,87.78
2022-12-05T04:52:13.251Z,88.15
2022-12-05T05:02:23.948Z,88.34
2022-12-05T05:12:28.111Z,87.77
2022-12-05T05:22:31.921Z,86.84
2022-12-05T05:32:35.706Z,86.43
2022-12-05T05:42:47.705Z,86.37
2022-12-05T05:52:51.526Z,87.18
2022-12-05T06:02:55.369Z,87.46
2022-12-05T06:13:01.105Z,87.05
2022-12-05T06:23:05.195Z,87.13
2022-12-05T06:33:09.576Z,87.50
2022-12-05T06:43:13.315Z,87.97
2022-12-05T06:53:17.711Z,88.47
2022-12-05T07:03:21.709Z,88.19
2022-12-05T07:13:26.053Z,87.22
2022-12-05T07:23:29.871Z,85.78
2022-12-05T07:33:34.165Z,85.38
2022-12-05T07:43:38.084Z,85.17
2022-12-05T07:53:44.229Z,85.34
2022-12-05T08:03:48.477Z,85.14
2022-12-05T08:13:53.464Z,84.98
2022-12-05T08:23:58.552Z,86.05
2022-12-05T08:34:03.345Z,87.20
2022-12-05T08:44:09.351Z,87.72
2022-12-05T08:54:14.062Z,88.02
2022-12-05T09:04:18.240Z,87.05
2022-12-05T09:14:22.716Z,86.01
2022-12-05T09:24:26.476Z,85.61
2022-12-05T09:34:30.451Z,85.63
2022-12-05T09:45:08.813Z,85.48
2022-12-05T09:55:19.223Z,86.49
2022-12-05T10:05:23.031Z,86.98
2022-12-05T10:15:57.548Z,87.92
2022-12-05T10:26:05.179Z,88.64
2022-12-05T10:36:16.091Z,88.71
2022-12-05T10:46:23.616Z,87.56
2022-12-05T10:56:40.151Z,86.73
2022-12-05T11:06:54.864Z,87.53
2022-12-05T11:17:01.744Z,87.72
2022-12-05T11:27:17.813Z,87.63
2022-12-05T11:37:30.322Z,86.64
2022-12-05T11:48:16.256Z,86.42
2022-12-05T11:58:25.950Z,85.89
2022-12-05T12:08:37.700Z,85.97
2022-12-05T12:18:50.472Z,86.05
2022-12-05T12:28:57.411Z,85.89
2022-12-05T12:39:42.491Z,85.91
2022-12-05T12:50:08.184Z,86.14
2022-12-05T13:00:20.655Z,85.69
2022-12-05T13:10:35.151Z,85.66
2022-12-05T13:20:41.100Z,85.85
2022-12-05T13:31:08.072Z,85.52
2022-12-05T13:41:30.671Z,85.33
2022-12-05T13:51:39.043Z,86.32
2022-12-05T14:01:52.009Z,85.61
2022-12-05T14:12:11.888Z,85.23
2022-12-05T14:22:37.738Z,86.36
2022-12-05T14:32:43.245Z,86.30
2022-12-05T14:42:58.264Z,86.32
2022-12-05T14:53:21.680Z,86.81
2022-12-05T15:03:32.887Z,86.36
2022-12-05T15:13:37.086Z,86.45
2022-12-05T15:23:56.203Z,87.19
2022-12-05T15:34:14.608Z,86.57
2022-12-05T15:44:26.698Z,87.09
2022-12-05T15:54:35.865Z,88.26
2022-12-05T16:04:49.464Z,87.79
2022-12-05T16:14:59.921Z,88.04
2022-12-05T16:25:18.060Z,88.32
2022-12-05T16:35:40.896Z,88.80
2022-12-05T16:45:47.189Z,89.24
2022-12-05T16:55:56.384Z,89.51
2022-12-05T17:06:01.836Z,89.03
2022-12-05T17:16:08.529Z,89.90
2022-12-05T17:26:23.017Z,89.66
2022-12-05T17:36:27.920Z,89.74
2022-12-05T17:46:32.627Z,89.57
2022-12-05T17:56:37.254Z,90.35
2022-12-05T18:06:43.897Z,90.86
2022-12-05T18:16:48.251Z,90.53
2022-12-05T18:26:52.894Z,89.85
2022-12-05T18:36:57.915Z,90.05
2022-12-05T18:47:04.601Z,89.59
2022-12-05T18:57:10.330Z,89.38
2022-12-05T19:07:19.307Z,88.81
2022-12-05T19:17:25.195Z,89.14
2022-12-05T19:27:29.928Z,89.81
2022-12-05T19:37:38.204Z,90.84
2022-12-05T19:47:44.587Z,89.79
2022-12-05T19:57:53.036Z,89.35
2022-12-05T20:07:58.989Z,88.70
2022-12-05T20:18:05.827Z,88.93
2022-12-05T20:28:11.485Z,88.47
2022-12-05T20:38:16.249Z,88.34
2022-12-05T20:48:23.727Z,88.57
2022-12-05T20:58:29.524Z,88.53
2022-12-05T21:08:33.810Z,88.78
2022-12-05T21:18:39.124Z,88.90
2022-12-05T21:28:44.567Z,89.40
2022-12-05T21:38:55.462Z,89.72
2022-12-05T21:49:01.259Z,89.96
2022-12-05T21:59:06.407Z,89.39
2022-12-05T22:09:12.560Z,89.50
2022-12-05T22:19:16.651Z,88.53
2022-12-05T22:29:21.534Z,88.75
2022-12-05T22:39:25.617Z,88.72
2022-12-05T22:49:30.005Z,88.47
2022-12-05T22:59:34.177Z,88.36
2022-12-05T23:09:38.354Z,88.98
2022-12-05T23:19:42.020Z,88.84
2022-12-05T23:29:46.904Z,88.19
2022-12-05T23:39:50.785Z,87.87
2022-12-05T23:49:54.851Z,88.17
2022-12-05T23:59:58.930Z,88.42
